sensor_id;sensor_type;location;lat;lon;timestamp;pressure;altitude;pressure_sealevel;temperature;humidity
57562;BME280;43397;51.530;5.974;2022-10-16T00:01:07;100661.28;;;12.64;100.00
57562;BME280;43397;51.530;5.974;2022-10-16T00:03:33;100661.28;;;12.62;100.00
57562;BME280;43397;51.530;5.974;2022-10-16T00:06:00;100661.25;;;12.65;100.00
57562;BME280;43397;51.530;5.974;2022-10-16T00:08:27;100660.22;;;12.72;100.00
57562;BME280;43397;51.530;5.974;2022-10-16T00:10:58;100661.19;;;12.68;100.00
57562;BME280;43397;51.530;5.974;2022-10-16T00:13:24;100659.44;;;12.66;100.00
57562;BME280;43397;51.530;5.974;2022-10-16T00:15:55;100656.69;;;12.70;100.00
57562;BME280;43397;51.530;5.974;2022-10-16T00:18:21;100654.97;;;12.68;100.00
57562;BME280;43397;51.530;5.974;2022-10-16T00:20:46;100651.38;;;12.69;100.00
57562;BME280;43397;51.530;5.974;2022-10-16T00:23:12;100670.09;;;12.67;100.00
57562;BME280;43397;51.530;5.974;2022-10-16T00:25:38;100662.09;;;12.67;100.00
57562;BME280;43397;51.530;5.974;2022-10-16T00:28:04;100667.44;;;12.67;100.00
57562;BME280;43397;51.530;5.974;2022-10-16T00:30:30;100662.91;;;12.69;100.00
57562;BME280;43397;51.530;5.974;2022-10-16T00:32:57;100662.13;;;12.66;100.00
57562;BME280;43397;51.530;5.974;2022-10-16T00:35:23;100659.44;;;12.66;100.00
57562;BME280;43397;51.530;5.974;2022-10-16T00:37:49;100655.00;;;12.66;100.00
57562;BME280;43397;51.530;5.974;2022-10-16T00:40:14;100655.00;;;12.66;100.00
57562;BME280;43397;51.530;5.974;2022-10-16T00:42:40;100650.59;;;12.65;100.00
57562;BME280;43397;51.530;5.974;2022-10-16T00:45:08;100660.31;;;12.66;100.00
57562;BME280;43397;51.530;5.974;2022-10-16T00:47:36;100653.09;;;12.71;100.00
57562;BME280;43397;51.530;5.974;2022-10-16T00:50:08;100655.91;;;12.65;100.00
57562;BME280;43397;51.530;5.974;2022-10-16T00:52:35;100658.63;;;12.62;100.00
57562;BME280;43397;51.530;5.974;2022-10-16T00:55:03;100665.78;;;12.60;100.00
57562;BME280;43397;51.530;5.974;2022-10-16T00:57:30;100672.03;;;12.59;100.00
57562;BME280;43397;51.530;5.974;2022-10-16T00:59:56;100665.72;;;12.63;100.00
57562;BME280;43397;51.530;5.974;2022-10-16T01:02:23;100659.56;;;12.61;100.00
57562;BME280;43397;51.530;5.974;2022-10-16T01:04:51;100663.06;;;12.63;100.00
57562;BME280;43397;51.530;5.974;2022-10-16T01:07:30;100659.59;;;12.58;100.00
57562;BME280;43397;51.530;5.974;2022-10-16T01:10:08;100663.28;;;12.51;100.00
57562;BME280;43397;51.530;5.974;2022-10-16T01:12:43;100664.16;;;12.53;100.00
57562;BME280;43397;51.530;5.974;2022-10-16T01:15:15;100665.84;;;12.57;100.00
57562;BME280;43397;51.530;5.974;2022-10-16T01:17:45;100656.06;;;12.58;100.00
57562;BME280;43397;51.530;5.974;2022-10-16T01:20:20;100657.00;;;12.55;100.00
57562;BME280;43397;51.530;5.974;2022-10-16T01:23:01;100652.56;;;12.54;100.00
57562;BME280;43397;51.530;5.974;2022-10-16T01:25:38;100643.66;;;12.55;100.00
57562;BME280;43397;51.530;5.974;2022-10-16T01:28:08;100640.25;;;12.48;100.00
57562;BME280;43397;51.530;5.974;2022-10-16T01:30:37;100646.44;;;12.49;100.00
57562;BME280;43397;51.530;5.974;2022-10-16T01:33:10;100654.44;;;12.50;100.00
57562;BME280;43397;51.530;5.974;2022-10-16T01:35:41;100650.91;;;12.48;100.00
57562;BME280;43397;51.530;5.974;2022-10-16T01:38:12;100643.94;;;12.41;100.00
57562;BME280;43397;51.530;5.974;2022-10-16T01:40:44;100657.28;;;12.41;100.00
57562;BME280;43397;51.530;5.974;2022-10-16T01:43:15;100660.84;;;12.39;100.00
57562;BME280;43397;51.530;5.974;2022-10-16T01:45:44;100658.16;;;12.42;100.00
57562;BME280;43397;51.530;5.974;2022-10-16T01:48:12;100660.75;;;12.43;100.00
57562;BME280;43397;51.530;5.974;2022-10-16T01:50:41;100661.66;;;12.44;100.00
57562;BME280;43397;51.530;5.974;2022-10-16T01:53:10;100668.72;;;12.46;100.00
57562;BME280;43397;51.530;5.974;2022-10-16T01:55:44;100679.41;;;12.43;100.00
57562;BME280;43397;51.530;5.974;2022-10-16T01:58:14;100663.50;;;12.39;100.00
57562;BME280;43397;51.530;5.974;2022-10-16T02:00:41;100669.81;;;12.34;100.00
57562;BME280;43397;51.530;5.974;2022-10-16T02:03:09;100666.31;;;12.32;100.00
57562;BME280;43397;51.530;5.974;2022-10-16T02:05:41;100670.72;;;12.33;100.00
57562;BME280;43397;51.530;5.974;2022-10-16T02:08:10;100682.25;;;12.34;100.00
57562;BME280;43397;51.530;5.974;2022-10-16T02:10:37;100687.47;;;12.42;100.00
57562;BME280;43397;51.530;5.974;2022-10-16T02:13:09;100681.28;;;12.40;100.00
57562;BME280;43397;51.530;5.974;2022-10-16T02:15:37;100686.66;;;12.37;100.00
57562;BME280;43397;51.530;5.974;2022-10-16T02:18:03;100683.06;;;12.39;100.00
57562;BME280;43397;51.530;5.974;2022-10-16T02:20:34;100683.00;;;12.42;100.00
57562;BME280;43397;51.530;5.974;2022-10-16T02:23:03;100691.06;;;12.39;100.00
57562;BME280;43397;51.530;5.974;2022-10-16T02:25:31;100683.19;;;12.33;100.00
57562;BME280;43397;51.530;5.974;2022-10-16T02:28:00;100679.66;;;12.31;100.00
57562;BME280;43397;51.530;5.974;2022-10-16T02:30:30;100673.41;;;12.32;100.00
57562;BME280;43397;51.530;5.974;2022-10-16T02:33:01;100674.31;;;12.32;100.00
57562;BME280;43397;51.530;5.974;2022-10-16T02:35:29;100685.75;;;12.39;100.00
57562;BME280;43397;51.530;5.974;2022-10-16T02:37:56;100680.59;;;12.28;100.00
57562;BME280;43397;51.530;5.974;2022-10-16T02:40:23;100681.50;;;12.27;100.00
57562;BME280;43397;51.530;5.974;2022-10-16T02:42:50;100676.16;;;12.29;100.00
57562;BME280;43397;51.530;5.974;2022-10-16T02:45:16;100676.13;;;12.30;100.00
57562;BME280;43397;51.530;5.974;2022-10-16T02:47:43;100675.31;;;12.25;100.00
57562;BME280;43397;51.530;5.974;2022-10-16T02:50:10;100670.81;;;12.29;100.00
57562;BME280;43397;51.530;5.974;2022-10-16T02:52:36;100680.72;;;12.22;100.00
57562;BME280;43397;51.530;5.974;2022-10-16T02:55:02;100684.16;;;12.27;100.00
57562;BME280;43397;51.530;5.974;2022-10-16T02:57:28;100672.72;;;12.21;100.00
57562;BME280;43397;51.530;5.974;2022-10-16T02:59:54;100661.94;;;12.28;100.00
57562;BME280;43397;51.530;5.974;2022-10-16T03:02:19;100669.94;;;12.28;100.00
57562;BME280;43397;51.530;5.974;2022-10-16T03:04:46;100666.38;;;12.28;100.00
57562;BME280;43397;51.530;5.974;2022-10-16T03:07:13;100650.38;;;12.28;100.00
57562;BME280;43397;51.530;5.974;2022-10-16T03:09:39;100652.19;;;12.27;100.00
57562;BME280;43397;51.530;5.974;2022-10-16T03:12:04;100648.56;;;12.30;100.00
57562;BME280;43397;51.530;5.974;2022-10-16T03:14:30;100656.72;;;12.22;100.00
57562;BME280;43397;51.530;5.974;2022-10-16T03:16:56;100668.25;;;12.24;100.00
57562;BME280;43397;51.530;5.974;2022-10-16T03:19:22;100670.94;;;12.23;100.00
57562;BME280;43397;51.530;5.974;2022-10-16T03:21:47;100678.84;;;12.27;100.00
57562;BME280;43397;51.530;5.974;2022-10-16T03:24:15;100680.47;;;12.34;100.00
57562;BME280;43397;51.530;5.974;2022-10-16T03:26:40;100683.28;;;12.28;100.00
57562;BME280;43397;51.530;5.974;2022-10-16T03:29:07;100694.81;;;12.27;100.00
57562;BME280;43397;51.530;5.974;2022-10-16T03:31:33;100701.91;;;12.28;100.00
57562;BME280;43397;51.530;5.974;2022-10-16T03:33:59;100699.28;;;12.27;100.00
57562;BME280;43397;51.530;5.974;2022-10-16T03:36:25;100702.84;;;12.26;100.00
57562;BME280;43397;51.530;5.974;2022-10-16T03:38:52;100699.88;;;12.43;100.00
57562;BME280;43397;51.530;5.974;2022-10-16T03:41:19;100693.84;;;12.33;100.00
57562;BME280;43397;51.530;5.974;2022-10-16T03:43:44;100706.22;;;12.37;100.00
57562;BME280;43397;51.530;5.974;2022-10-16T03:46:10;100698.22;;;12.35;100.00
57562;BME280;43397;51.530;5.974;2022-10-16T03:48:36;100693.06;;;12.26;100.00
57562;BME280;43397;51.530;5.974;2022-10-16T03:51:02;100689.47;;;12.29;100.00
57562;BME280;43397;51.530;5.974;2022-10-16T03:53:28;100692.06;;;12.33;100.00
57562;BME280;43397;51.530;5.974;2022-10-16T03:55:53;100701.84;;;12.31;100.00
57562;BME280;43397;51.530;5.974;2022-10-16T03:58:20;100713.47;;;12.27;100.00
57562;BME280;43397;51.530;5.974;2022-10-16T04:00:46;100711.63;;;12.32;100.00
57562;BME280;43397;51.530;5.974;2022-10-16T04:03:12;100707.00;;;12.42;100.00
57562;BME280;43397;51.530;5.974;2022-10-16T04:05:38;100718.63;;;12.37;100.00
57562;BME280;43397;51.530;5.974;2022-10-16T04:08:04;100717.88;;;12.30;100.00
57562;BME280;43397;51.530;5.974;2022-10-16T04:10:30;100713.31;;;12.37;100.00
57562;BME280;43397;51.530;5.974;2022-10-16T04:12:56;100723.06;;;12.39;100.00
57562;BME280;43397;51.530;5.974;2022-10-16T04:15:23;100726.72;;;12.32;100.00
57562;BME280;43397;51.530;5.974;2022-10-16T04:17:49;100730.34;;;12.28;100.00
57562;BME280;43397;51.530;5.974;2022-10-16T04:20:15;100727.63;;;12.32;100.00
57562;BME280;43397;51.530;5.974;2022-10-16T04:22:41;100732.97;;;12.31;100.00
57562;BME280;43397;51.530;5.974;2022-10-16T04:25:08;100730.97;;;12.42;100.00
57562;BME280;43397;51.530;5.974;2022-10-16T04:27:34;100735.53;;;12.37;100.00
57562;BME280;43397;51.530;5.974;2022-10-16T04:30:00;100731.09;;;12.36;100.00
57562;BME280;43397;51.530;5.974;2022-10-16T04:32:27;100731.25;;;12.28;100.00
57562;BME280;43397;51.530;5.974;2022-10-16T04:34:53;100734.84;;;12.24;100.00
57562;BME280;43397;51.530;5.974;2022-10-16T04:37:19;100736.47;;;12.33;100.00
57562;BME280;43397;51.530;5.974;2022-10-16T04:39:44;100731.16;;;12.31;100.00
57562;BME280;43397;51.530;5.974;2022-10-16T04:42:10;100734.72;;;12.32;100.00
57562;BME280;43397;51.530;5.974;2022-10-16T04:44:36;100740.03;;;12.32;100.00
57562;BME280;43397;51.530;5.974;2022-10-16T04:47:02;100745.41;;;12.30;100.00
57562;BME280;43397;51.530;5.974;2022-10-16T04:49:29;100749.00;;;12.28;100.00
57562;BME280;43397;51.530;5.974;2022-10-16T04:51:55;100749.91;;;12.27;100.00
57562;BME280;43397;51.530;5.974;2022-10-16T04:54:21;100743.78;;;12.22;100.00
57562;BME280;43397;51.530;5.974;2022-10-16T04:56:46;100764.16;;;12.24;100.00
57562;BME280;43397;51.530;5.974;2022-10-16T04:59:13;100774.75;;;12.27;100.00
57562;BME280;43397;51.530;5.974;2022-10-16T05:01:39;100764.88;;;12.34;100.00
57562;BME280;43397;51.530;5.974;2022-10-16T05:04:04;100772.94;;;12.29;100.00
57562;BME280;43397;51.530;5.974;2022-10-16T05:06:32;100778.34;;;12.26;100.00
57562;BME280;43397;51.530;5.974;2022-10-16T05:08:57;100775.63;;;12.29;100.00
57562;BME280;43397;51.530;5.974;2022-10-16T05:11:23;100769.34;;;12.33;100.00
57562;BME280;43397;51.530;5.974;2022-10-16T05:13:49;100766.84;;;12.24;100.00
57562;BME280;43397;51.530;5.974;2022-10-16T05:16:15;100774.81;;;12.24;100.00
57562;BME280;43397;51.530;5.974;2022-10-16T05:18:41;100772.13;;;12.26;100.00
57562;BME280;43397;51.530;5.974;2022-10-16T05:21:06;100772.97;;;12.28;100.00
57562;BME280;43397;51.530;5.974;2022-10-16T05:23:34;100782.78;;;12.26;100.00
57562;BME280;43397;51.530;5.974;2022-10-16T05:25:59;100788.06;;;12.29;100.00
57562;BME280;43397;51.530;5.974;2022-10-16T05:28:26;100775.63;;;12.28;100.00
57562;BME280;43397;51.530;5.974;2022-10-16T05:30:53;100789.94;;;12.24;100.00
57562;BME280;43397;51.530;5.974;2022-10-16T05:33:20;100792.47;;;12.31;100.00
57562;BME280;43397;51.530;5.974;2022-10-16T05:35:46;100790.72;;;12.30;100.00
57562;BME280;43397;51.530;5.974;2022-10-16T05:38:11;100790.66;;;12.33;100.00
57562;BME280;43397;51.530;5.974;2022-10-16T05:40:39;100795.94;;;12.37;100.00
57562;BME280;43397;51.530;5.974;2022-10-16T05:43:04;100792.47;;;12.30;100.00
57562;BME280;43397;51.530;5.974;2022-10-16T05:45:30;100799.63;;;12.28;100.00
57562;BME280;43397;51.530;5.974;2022-10-16T05:47:56;100811.13;;;12.31;100.00
57562;BME280;43397;51.530;5.974;2022-10-16T05:50:22;100815.66;;;12.26;100.00
57562;BME280;43397;51.530;5.974;2022-10-16T05:52:48;100816.63;;;12.19;100.00
57562;BME280;43397;51.530;5.974;2022-10-16T05:55:13;100815.78;;;12.17;100.00
57562;BME280;43397;51.530;5.974;2022-10-16T05:57:41;100830.81;;;12.21;100.00
57562;BME280;43397;51.530;5.974;2022-10-16T06:00:07;100835.28;;;12.21;100.00
57562;BME280;43397;51.530;5.974;2022-10-16T06:02:33;100845.94;;;12.19;100.00
57562;BME280;43397;51.530;5.974;2022-10-16T06:05:00;100843.25;;;12.21;100.00
57562;BME280;43397;51.530;5.974;2022-10-16T06:07:25;100850.31;;;12.23;100.00
57562;BME280;43397;51.530;5.974;2022-10-16T06:09:52;100854.78;;;12.24;100.00
57562;BME280;43397;51.530;5.974;2022-10-16T06:12:18;100853.91;;;12.22;100.00
57562;BME280;43397;51.530;5.974;2022-10-16T06:14:46;100859.25;;;12.21;100.00
57562;BME280;43397;51.530;5.974;2022-10-16T06:17:12;100864.66;;;12.16;100.00
57562;BME280;43397;51.530;5.974;2022-10-16T06:19:38;100874.50;;;12.11;100.00
57562;BME280;43397;51.530;5.974;2022-10-16T06:22:04;100883.38;;;12.13;100.00
57562;BME280;43397;51.530;5.974;2022-10-16T06:24:29;100893.16;;;12.09;100.00
57562;BME280;43397;51.530;5.974;2022-10-16T06:26:55;100893.19;;;12.08;100.00
57562;BME280;43397;51.530;5.974;2022-10-16T06:29:21;100892.28;;;12.09;100.00
57562;BME280;43397;51.530;5.974;2022-10-16T06:31:48;100895.88;;;12.06;100.00
57562;BME280;43397;51.530;5.974;2022-10-16T06:34:14;100902.03;;;12.08;100.00
57562;BME280;43397;51.530;5.974;2022-10-16T06:36:40;100900.31;;;12.06;100.00
57562;BME280;43397;51.530;5.974;2022-10-16T06:39:06;100904.81;;;12.02;100.00
57562;BME280;43397;51.530;5.974;2022-10-16T06:41:32;100908.22;;;12.12;100.00
57562;BME280;43397;51.530;5.974;2022-10-16T06:43:58;100908.44;;;11.95;100.00
57562;BME280;43397;51.530;5.974;2022-10-16T06:46:25;100907.56;;;11.94;100.00
57562;BME280;43397;51.530;5.974;2022-10-16T06:48:53;100917.28;;;11.97;100.00
57562;BME280;43397;51.530;5.974;2022-10-16T06:51:20;100923.53;;;11.96;100.00
57562;BME280;43397;51.530;5.974;2022-10-16T06:53:47;100928.75;;;12.05;100.00
57562;BME280;43397;51.530;5.974;2022-10-16T06:56:15;100930.66;;;11.96;100.00
57562;BME280;43397;51.530;5.974;2022-10-16T06:58:42;100928.88;;;11.93;100.00
57562;BME280;43397;51.530;5.974;2022-10-16T07:01:09;100926.22;;;11.96;100.00
57562;BME280;43397;51.530;5.974;2022-10-16T07:03:36;100930.56;;;12.02;100.00
57562;BME280;43397;51.530;5.974;2022-10-16T07:06:05;100930.53;;;12.05;100.00
57562;BME280;43397;51.530;5.974;2022-10-16T07:08:31;100933.13;;;12.09;100.00
57562;BME280;43397;51.530;5.974;2022-10-16T07:10:59;100941.06;;;12.16;100.00
57562;BME280;43397;51.530;5.974;2022-10-16T07:13:25;100941.00;;;12.17;100.00
57562;BME280;43397;51.530;5.974;2022-10-16T07:15:50;100944.50;;;12.22;100.00
57562;BME280;43397;51.530;5.974;2022-10-16T07:18:16;100954.19;;;12.28;100.00
57562;BME280;43397;51.530;5.974;2022-10-16T07:20:42;100954.97;;;12.34;100.00
57562;BME280;43397;51.530;5.974;2022-10-16T07:23:09;100962.91;;;12.41;100.00
57562;BME280;43397;51.530;5.974;2022-10-16T07:25:35;100970.81;;;12.47;100.00
57562;BME280;43397;51.530;5.974;2022-10-16T07:28:01;100983.06;;;12.60;100.00
57562;BME280;43397;51.530;5.974;2022-10-16T07:30:27;100978.56;;;12.64;100.00
57562;BME280;43397;51.530;5.974;2022-10-16T07:32:53;100977.72;;;12.62;100.00
57562;BME280;43397;51.530;5.974;2022-10-16T07:35:18;100989.22;;;12.65;100.00
57562;BME280;43397;51.530;5.974;2022-10-16T07:37:45;100998.03;;;12.72;100.00
57562;BME280;43397;51.530;5.974;2022-10-16T07:40:12;101002.28;;;12.82;100.00
57562;BME280;43397;51.530;5.974;2022-10-16T07:42:38;100999.59;;;12.84;100.00
57562;BME280;43397;51.530;5.974;2022-10-16T07:45:04;101000.41;;;12.89;100.00
57562;BME280;43397;51.530;5.974;2022-10-16T07:47:30;101007.47;;;12.93;100.00
57562;BME280;43397;51.530;5.974;2022-10-16T07:49:56;101007.38;;;12.99;100.00
57562;BME280;43397;51.530;5.974;2022-10-16T07:52:22;101005.47;;;13.07;100.00
57562;BME280;43397;51.530;5.974;2022-10-16T07:54:48;101015.22;;;13.08;100.00
57562;BME280;43397;51.530;5.974;2022-10-16T07:57:15;101023.03;;;13.21;100.00
57562;BME280;43397;51.530;5.974;2022-10-16T07:59:40;101033.59;;;13.30;100.00
57562;BME280;43397;51.530;5.974;2022-10-16T08:02:07;101030.81;;;13.36;100.00
57562;BME280;43397;51.530;5.974;2022-10-16T08:04:33;101041.44;;;13.39;100.00
57562;BME280;43397;51.530;5.974;2022-10-16T08:06:59;101044.00;;;13.47;100.00
57562;BME280;43397;51.530;5.974;2022-10-16T08:09:25;101044.84;;;13.50;100.00
57562;BME280;43397;51.530;5.974;2022-10-16T08:11:50;101056.22;;;13.62;100.00
57562;BME280;43397;51.530;5.974;2022-10-16T08:14:18;101056.97;;;13.68;100.00
57562;BME280;43397;51.530;5.974;2022-10-16T08:16:44;101064.03;;;13.71;100.00
57562;BME280;43397;51.530;5.974;2022-10-16T08:19:10;101078.16;;;13.79;100.00
57562;BME280;43397;51.530;5.974;2022-10-16T08:21:36;101079.78;;;13.86;100.00
57562;BME280;43397;51.530;5.974;2022-10-16T08:24:02;101077.97;;;13.90;100.00
57562;BME280;43397;51.530;5.974;2022-10-16T08:26:27;101078.72;;;13.98;100.00
57562;BME280;43397;51.530;5.974;2022-10-16T08:28:53;101071.47;;;14.03;100.00
57562;BME280;43397;51.530;5.974;2022-10-16T08:31:21;101087.34;;;14.11;100.00
57562;BME280;43397;51.530;5.974;2022-10-16T08:33:47;101080.06;;;14.20;100.00
57562;BME280;43397;51.530;5.974;2022-10-16T08:36:14;101079.97;;;14.25;100.00
57562;BME280;43397;51.530;5.974;2022-10-16T08:38:40;101082.50;;;14.31;100.00
57562;BME280;43397;51.530;5.974;2022-10-16T08:41:20;101094.63;;;14.48;100.00
57562;BME280;43397;51.530;5.974;2022-10-16T08:43:59;101088.13;;;14.63;100.00
57562;BME280;43397;51.530;5.974;2022-10-16T08:46:39;101091.41;;;14.77;100.00
57562;BME280;43397;51.530;5.974;2022-10-16T08:49:12;101105.19;;;14.99;100.00
57562;BME280;43397;51.530;5.974;2022-10-16T08:51:38;101099.56;;;15.11;100.00
57562;BME280;43397;51.530;5.974;2022-10-16T08:54:05;101111.19;;;15.10;100.00
57562;BME280;43397;51.530;5.974;2022-10-16T08:56:31;101114.13;;;15.37;100.00
57562;BME280;43397;51.530;5.974;2022-10-16T08:58:59;101115.66;;;15.47;100.00
57562;BME280;43397;51.530;5.974;2022-10-16T09:01:35;101112.72;;;15.58;100.00
57562;BME280;43397;51.530;5.974;2022-10-16T09:04:30;101113.38;;;16.03;100.00
57562;BME280;43397;51.530;5.974;2022-10-16T09:07:02;101112.69;;;16.28;100.00
57562;BME280;43397;51.530;5.974;2022-10-16T09:09:46;101127.63;;;16.06;100.00
57562;BME280;43397;51.530;5.974;2022-10-16T09:12:21;101115.00;;;16.42;100.00
57562;BME280;43397;51.530;5.974;2022-10-16T09:15:01;101116.38;;;16.88;100.00
57562;BME280;43397;51.530;5.974;2022-10-16T09:17:39;101119.78;;;16.93;100.00
57562;BME280;43397;51.530;5.974;2022-10-16T09:20:13;101128.50;;;17.01;100.00
57562;BME280;43397;51.530;5.974;2022-10-16T09:22:43;101140.03;;;17.33;100.00
57562;BME280;43397;51.530;5.974;2022-10-16T09:25:13;101142.59;;;17.10;100.00
57562;BME280;43397;51.530;5.974;2022-10-16T09:27:39;101151.72;;;17.32;100.00
57562;BME280;43397;51.530;5.974;2022-10-16T09:30:11;101152.09;;;17.48;100.00
57562;BME280;43397;51.530;5.974;2022-10-16T09:32:40;101152.63;;;17.59;100.00
57562;BME280;43397;51.530;5.974;2022-10-16T09:35:11;101155.88;;;17.71;100.00
57562;BME280;43397;51.530;5.974;2022-10-16T09:37:40;101143.59;;;17.90;100.00
57562;BME280;43397;51.530;5.974;2022-10-16T09:40:12;101140.97;;;17.88;100.00
57562;BME280;43397;51.530;5.974;2022-10-16T09:42:39;101159.97;;;18.09;100.00
57562;BME280;43397;51.530;5.974;2022-10-16T09:45:06;101150.03;;;18.11;100.00
57562;BME280;43397;51.530;5.974;2022-10-16T09:47:39;101156.84;;;18.21;100.00
57562;BME280;43397;51.530;5.974;2022-10-16T09:50:24;101156.91;;;18.45;98.21
57562;BME280;43397;51.530;5.974;2022-10-16T09:52:50;101151.44;;;18.71;97.29
57562;BME280;43397;51.530;5.974;2022-10-16T09:55:17;101157.00;;;18.67;95.70
57562;BME280;43397;51.530;5.974;2022-10-16T09:57:49;101147.03;;;18.45;96.75
57562;BME280;43397;51.530;5.974;2022-10-16T10:00:16;101141.94;;;18.86;97.20
57562;BME280;43397;51.530;5.974;2022-10-16T10:02:44;101157.28;;;18.84;92.98
57562;BME280;43397;51.530;5.974;2022-10-16T10:05:19;101151.50;;;18.95;93.06
57562;BME280;43397;51.530;5.974;2022-10-16T10:07:45;101147.41;;;18.60;93.51
57562;BME280;43397;51.530;5.974;2022-10-16T10:10:20;101153.06;;;19.01;92.12
57562;BME280;43397;51.530;5.974;2022-10-16T10:12:46;101153.19;;;19.65;91.85
57562;BME280;43397;51.530;5.974;2022-10-16T10:15:13;101160.06;;;19.74;87.98
57562;BME280;43397;51.530;5.974;2022-10-16T10:17:48;101154.06;;;20.10;86.25
57562;BME280;43397;51.530;5.974;2022-10-16T10:20:22;101159.97;;;20.18;85.87
57562;BME280;43397;51.530;5.974;2022-10-16T10:22:48;101160.13;;;20.35;83.02
57562;BME280;43397;51.530;5.974;2022-10-16T10:25:35;101166.06;;;20.64;86.16
57562;BME280;43397;51.530;5.974;2022-10-16T10:28:20;101167.91;;;20.43;86.08
57562;BME280;43397;51.530;5.974;2022-10-16T10:30:55;101170.41;;;19.85;85.84
57562;BME280;43397;51.530;5.974;2022-10-16T10:33:29;101174.97;;;19.83;85.65
57562;BME280;43397;51.530;5.974;2022-10-16T10:36:03;101182.69;;;19.01;90.52
57562;BME280;43397;51.530;5.974;2022-10-16T10:38:38;101186.28;;;18.76;94.71
57562;BME280;43397;51.530;5.974;2022-10-16T10:41:15;101186.75;;;18.39;93.85
57562;BME280;43397;51.530;5.974;2022-10-16T10:43:55;101189.38;;;18.90;91.55
57562;BME280;43397;51.530;5.974;2022-10-16T10:46:32;101184.75;;;18.69;89.26
57562;BME280;43397;51.530;5.974;2022-10-16T10:49:10;101189.63;;;19.08;89.77
57562;BME280;43397;51.530;5.974;2022-10-16T10:51:46;101196.88;;;19.29;86.09
57562;BME280;43397;51.530;5.974;2022-10-16T10:54:20;101190.13;;;19.18;87.67
57562;BME280;43397;51.530;5.974;2022-10-16T10:56:57;101181.81;;;19.24;85.98
57562;BME280;43397;51.530;5.974;2022-10-16T10:59:45;101191.53;;;19.28;82.96
57562;BME280;43397;51.530;5.974;2022-10-16T11:02:21;101188.03;;;19.26;84.63
57562;BME280;43397;51.530;5.974;2022-10-16T11:05:15;101182.53;;;19.51;85.05
57562;BME280;43397;51.530;5.974;2022-10-16T11:07:48;101189.06;;;19.22;84.33
57562;BME280;43397;51.530;5.974;2022-10-16T11:10:18;101189.00;;;19.47;85.54
57562;BME280;43397;51.530;5.974;2022-10-16T11:12:48;101184.91;;;19.13;82.21
57562;BME280;43397;51.530;5.974;2022-10-16T11:15:19;101193.66;;;19.20;82.52
57562;BME280;43397;51.530;5.974;2022-10-16T11:17:49;101192.13;;;19.13;82.93
57562;BME280;43397;51.530;5.974;2022-10-16T11:20:21;101197.25;;;19.42;82.24
57562;BME280;43397;51.530;5.974;2022-10-16T11:22:52;101198.69;;;19.75;80.98
57562;BME280;43397;51.530;5.974;2022-10-16T11:25:22;101197.69;;;19.99;80.20
57562;BME280;43397;51.530;5.974;2022-10-16T11:27:51;101190.03;;;20.31;77.83
57562;BME280;43397;51.530;5.974;2022-10-16T11:30:22;101189.34;;;20.87;78.43
57562;BME280;43397;51.530;5.974;2022-10-16T11:32:58;101181.41;;;21.03;79.92
57562;BME280;43397;51.530;5.974;2022-10-16T11:35:36;101187.97;;;20.98;74.34
57562;BME280;43397;51.530;5.974;2022-10-16T11:38:04;101189.97;;;20.73;73.19
57562;BME280;43397;51.530;5.974;2022-10-16T11:40:37;101197.81;;;19.96;77.61
57562;BME280;43397;51.530;5.974;2022-10-16T11:43:12;101196.28;;;20.11;77.78
57562;BME280;43397;51.530;5.974;2022-10-16T11:45:42;101200.31;;;20.64;77.68
57562;BME280;43397;51.530;5.974;2022-10-16T11:48:15;101201.06;;;20.04;76.65
57562;BME280;43397;51.530;5.974;2022-10-16T11:50:49;101199.00;;;20.52;72.75
57562;BME280;43397;51.530;5.974;2022-10-16T11:53:24;101198.94;;;21.13;71.26
57562;BME280;43397;51.530;5.974;2022-10-16T11:55:53;101202.59;;;20.73;73.40
57562;BME280;43397;51.530;5.974;2022-10-16T11:58:24;101206.13;;;21.14;72.18
57562;BME280;43397;51.530;5.974;2022-10-16T12:00:58;101210.75;;;20.51;71.66
57562;BME280;43397;51.530;5.974;2022-10-16T12:03:29;101216.63;;;21.21;71.47
57562;BME280;43397;51.530;5.974;2022-10-16T12:06:18;101218.75;;;21.33;69.16
57562;BME280;43397;51.530;5.974;2022-10-16T12:08:48;101211.56;;;21.52;68.82
57562;BME280;43397;51.530;5.974;2022-10-16T12:11:30;101211.88;;;21.83;67.31
57562;BME280;43397;51.530;5.974;2022-10-16T12:14:05;101220.28;;;21.95;65.99
57562;BME280;43397;51.530;5.974;2022-10-16T12:16:32;101216.69;;;21.38;67.67
57562;BME280;43397;51.530;5.974;2022-10-16T12:19:11;101220.88;;;21.26;66.90
57562;BME280;43397;51.530;5.974;2022-10-16T12:21:39;101216.25;;;20.70;69.51
57562;BME280;43397;51.530;5.974;2022-10-16T12:24:06;101219.59;;;20.75;68.71
57562;BME280;43397;51.530;5.974;2022-10-16T12:26:52;101207.13;;;21.12;69.36
57562;BME280;43397;51.530;5.974;2022-10-16T12:29:24;101224.28;;;21.11;68.53
57562;BME280;43397;51.530;5.974;2022-10-16T12:31:54;101217.69;;;21.56;66.01
57562;BME280;43397;51.530;5.974;2022-10-16T12:34:23;101213.63;;;21.47;66.48
57562;BME280;43397;51.530;5.974;2022-10-16T12:36:53;101220.25;;;21.59;66.28
57562;BME280;43397;51.530;5.974;2022-10-16T12:39:22;101211.44;;;21.73;64.88
57562;BME280;43397;51.530;5.974;2022-10-16T12:42:00;101217.81;;;21.91;65.01
57562;BME280;43397;51.530;5.974;2022-10-16T12:44:32;101216.25;;;21.85;64.05
57562;BME280;43397;51.530;5.974;2022-10-16T12:46:58;101225.31;;;21.48;66.27
57562;BME280;43397;51.530;5.974;2022-10-16T12:49:31;101222.09;;;21.38;66.38
57562;BME280;43397;51.530;5.974;2022-10-16T12:51:59;101214.69;;;21.98;64.76